Time;durP1;ratioP1;P1;durP2;ratioP2;P2;SDS_P1;SDS_P2;PMS_P1;PMS_P2;Temp;Humidity;BMP_temperature;BMP_pressure;BME280_temperature;BME280_humidity;BME280_pressure;Samples;Min_cycle;Max_cycle;Signal;HPM_P1;HPM_P2
2022/04/21 00:02:14;;;;;;;10.50;6.35;;;;;;;;;;5094631;28;20472;-81
2022/04/21 00:04:39;;;;;;;10.63;6.32;;;;;;;;;;5094017;28;20012;-78
2022/04/21 00:07:05;;;;;;;19.35;7.20;;;;;;;;;;5094182;28;20032;-79
2022/04/21 00:09:30;;;;;;;13.93;7.15;;;;;;;;;;5094041;28;20016;-77
2022/04/21 00:11:55;;;;;;;12.02;6.72;;;;;;;;;;5092388;28;20038;-79
2022/04/21 00:14:20;;;;;;;16.23;7.20;;;;;;;;;;5092541;28;20093;-79
2022/04/21 00:16:46;;;;;;;13.98;6.63;;;;;;;;;;5093857;28;20016;-80
2022/04/21 00:19:11;;;;;;;10.40;6.40;;;;;;;;;;5095721;28;20063;-77
2022/04/21 00:24:20;;;;;;;9.15;5.80;;;;;;;;;;5093950;28;20047;-77
2022/04/21 00:26:45;;;;;;;12.27;6.20;;;;;;;;;;5093971;28;20024;-80
2022/04/21 00:29:11;;;;;;;10.50;6.05;;;;;;;;;;5093229;28;20030;-80
2022/04/21 00:31:36;;;;;;;10.50;6.40;;;;;;;;;;5093014;28;20059;-77
2022/04/21 00:34:01;;;;;;;13.73;6.60;;;;;;;;;;5093031;28;20370;-81
2022/04/21 00:36:26;;;;;;;10.80;6.63;;;;;;;;;;5094129;28;20625;-82
2022/04/21 00:38:51;;;;;;;8.95;5.97;;;;;;;;;;5094474;28;20099;-80
2022/04/21 00:41:17;;;;;;;13.63;6.60;;;;;;;;;;5091839;28;20027;-77
2022/04/21 00:43:42;;;;;;;10.05;6.45;;;;;;;;;;5090400;28;20008;-77
2022/04/21 00:46:12;;;;;;;10.48;6.13;;;;;;;;;;5094816;28;20020;-85
2022/04/21 00:48:37;;;;;;;11.63;5.95;;;;;;;;;;5094848;28;20074;-83
2022/04/21 00:51:02;;;;;;;10.40;6.00;;;;;;;;;;5094504;28;20012;-81
2022/04/21 00:53:28;;;;;;;8.00;5.75;;;;;;;;;;5096265;28;20028;-80
2022/04/21 00:55:54;;;;;;;11.95;6.68;;;;;;;;;;5099470;28;20047;-82
2022/04/21 00:58:19;;;;;;;11.57;6.10;;;;;;;;;;5097836;28;20035;-83
2022/04/21 01:00:44;;;;;;;11.25;6.57;;;;;;;;;;5101026;28;20016;-83
2022/04/21 01:03:10;;;;;;;11.57;6.50;;;;;;;;;;5104415;28;20123;-80
2022/04/21 01:05:35;;;;;;;11.52;5.88;;;;;;;;;;5105055;28;20012;-82
2022/04/21 01:08:07;;;;;;;11.43;5.75;;;;;;;;;;5103679;28;20073;-83
2022/04/21 01:10:34;;;;;;;10.48;5.63;;;;;;;;;;5103108;28;20024;-85
2022/04/21 01:13:00;;;;;;;11.15;5.70;;;;;;;;;;5104542;28;20028;-83
2022/04/21 01:15:26;;;;;;;8.65;5.45;;;;;;;;;;5102580;28;20020;-83
2022/04/21 01:17:52;;;;;;;12.27;5.72;;;;;;;;;;5103709;28;20578;-83
2022/04/21 01:20:21;;;;;;;7.95;4.97;;;;;;;;;;5103203;28;20012;-81
2022/04/21 01:22:46;;;;;;;9.73;5.97;;;;;;;;;;5105020;28;20024;-81
2022/04/21 01:25:11;;;;;;;9.95;5.65;;;;;;;;;;5106575;28;20016;-83
2022/04/21 01:27:37;;;;;;;10.50;5.97;;;;;;;;;;5106928;28;20047;-82
2022/04/21 01:30:04;;;;;;;11.38;5.88;;;;;;;;;;5106244;28;20062;-84
2022/04/21 01:32:31;;;;;;;9.38;6.53;;;;;;;;;;5104330;28;20032;-84
2022/04/21 01:34:57;;;;;;;9.77;5.78;;;;;;;;;;5093038;28;20538;-78
2022/04/21 01:42:49;;;;;;;10.23;6.28;;;;;;;;;;5092404;28;20038;-80
2022/04/21 01:45:16;;;;;;;11.82;5.97;;;;;;;;;;5092142;28;20032;-77
2022/04/21 01:47:41;;;;;;;11.60;6.63;;;;;;;;;;5092415;28;20034;-78
2022/04/21 01:50:07;;;;;;;11.25;6.18;;;;;;;;;;5091805;28;20099;-79
2022/04/21 01:52:33;;;;;;;9.60;6.60;;;;;;;;;;5091887;28;20114;-75
2022/04/21 01:55:00;;;;;;;11.68;5.05;;;;;;;;;;5094872;28;20023;-79
2022/04/21 01:57:25;;;;;;;10.65;6.10;;;;;;;;;;5095632;28;20020;-82
2022/04/21 01:59:51;;;;;;;8.38;5.10;;;;;;;;;;5093989;28;20483;-83
2022/04/21 02:02:17;;;;;;;10.65;5.68;;;;;;;;;;5093074;28;20027;-79
2022/04/21 02:04:42;;;;;;;10.32;5.82;;;;;;;;;;5096333;28;20475;-83
2022/04/21 02:07:07;;;;;;;10.43;5.68;;;;;;;;;;5098275;28;20481;-80
2022/04/21 02:09:33;;;;;;;10.18;6.35;;;;;;;;;;5105362;28;20024;-85
2022/04/21 02:11:58;;;;;;;10.32;5.25;;;;;;;;;;5102426;28;20028;-86
2022/04/21 02:14:23;;;;;;;12.45;6.47;;;;;;;;;;5103524;28;20476;-88
2022/04/21 02:16:49;;;;;;;11.93;5.50;;;;;;;;;;5103995;28;20020;-84
2022/04/21 02:19:14;;;;;;;11.07;6.20;;;;;;;;;;5104355;28;20842;-83
2022/04/21 02:21:39;;;;;;;9.88;5.85;;;;;;;;;;5104191;28;20890;-85
2022/04/21 02:24:04;;;;;;;8.97;5.47;;;;;;;;;;5102973;28;20048;-83
2022/04/21 02:26:30;;;;;;;9.98;6.18;;;;;;;;;;5105046;28;20252;-87
2022/04/21 02:28:55;;;;;;;9.73;6.65;;;;;;;;;;5105631;28;20051;-85
2022/04/21 02:31:20;;;;;;;8.50;5.65;;;;;;;;;;5101885;28;20141;-86
2022/04/21 02:33:47;;;;;;;10.63;6.18;;;;;;;;;;5104030;28;20030;-83
2022/04/21 02:36:12;;;;;;;11.88;6.60;;;;;;;;;;5104964;28;20043;-86
2022/04/21 02:38:37;;;;;;;9.32;6.75;;;;;;;;;;5108893;28;20082;-87
2022/04/21 02:41:04;;;;;;;7.63;5.22;;;;;;;;;;5110539;28;20012;-85
2022/04/21 02:43:29;;;;;;;11.45;6.18;;;;;;;;;;5110305;28;20032;-86
2022/04/21 02:45:54;;;;;;;9.35;6.05;;;;;;;;;;5111575;28;20020;-83
2022/04/21 02:48:20;;;;;;;7.57;5.60;;;;;;;;;;5110325;28;20026;-86
2022/04/21 02:50:47;;;;;;;8.77;5.20;;;;;;;;;;5109289;28;20043;-87
2022/04/21 02:53:12;;;;;;;8.85;5.88;;;;;;;;;;5110085;28;20028;-85
2022/04/21 02:58:23;;;;;;;10.23;6.50;;;;;;;;;;5111448;28;20059;-86
2022/04/21 03:00:48;;;;;;;9.38;6.25;;;;;;;;;;5108607;28;20012;-83
2022/04/21 03:03:14;;;;;;;13.70;6.22;;;;;;;;;;5112125;28;20020;-85
2022/04/21 03:05:39;;;;;;;14.05;6.78;;;;;;;;;;5113881;28;20016;-88
2022/04/21 03:08:04;;;;;;;10.90;6.93;;;;;;;;;;5113940;28;20085;-87
2022/04/21 03:10:31;;;;;;;12.13;6.80;;;;;;;;;;5110954;28;20034;-85
2022/04/21 03:12:58;;;;;;;12.60;6.28;;;;;;;;;;5108583;28;20103;-84
2022/04/21 03:15:24;;;;;;;10.45;6.38;;;;;;;;;;5108550;28;20024;-87
2022/04/21 03:17:49;;;;;;;11.68;6.35;;;;;;;;;;5109423;28;20400;-85
2022/04/21 03:24:19;;;;;;;11.65;6.38;;;;;;;;;;5110245;28;20036;-83
2022/04/21 03:25:44;;;;;;;10.48;6.45;;;;;;;;;;5113523;28;20443;-84
2022/04/21 03:28:11;;;;;;;9.65;6.15;;;;;;;;;;5110261;28;20059;-85
2022/04/21 03:30:36;;;;;;;11.82;6.70;;;;;;;;;;5112595;28;20053;-83
2022/04/21 03:33:01;;;;;;;11.98;7.18;;;;;;;;;;5114585;28;20120;-85
2022/04/21 03:35:26;;;;;;;19.50;8.60;;;;;;;;;;5112147;28;20028;-85
2022/04/21 03:37:52;;;;;;;10.82;6.25;;;;;;;;;;5103136;28;20024;-87
2022/04/21 03:40:17;;;;;;;11.93;7.30;;;;;;;;;;5105268;28;20023;-84
2022/04/21 03:42:42;;;;;;;9.85;6.50;;;;;;;;;;5121917;28;20020;-85
2022/04/21 03:45:08;;;;;;;11.65;7.88;;;;;;;;;;5122181;28;20024;-84
2022/04/21 03:47:34;;;;;;;12.35;6.70;;;;;;;;;;5119494;27;20475;-84
2022/04/21 03:49:59;;;;;;;12.20;6.95;;;;;;;;;;5120313;27;20041;-83
2022/04/21 03:52:24;;;;;;;11.15;6.40;;;;;;;;;;5119662;28;20057;-82
2022/04/21 03:54:49;;;;;;;14.25;8.00;;;;;;;;;;5099848;28;20020;-84
2022/04/21 03:57:15;;;;;;;17.80;7.07;;;;;;;;;;5102282;28;20027;-81
2022/04/21 03:59:40;;;;;;;10.68;6.57;;;;;;;;;;5102258;28;20016;-84
2022/04/21 04:02:05;;;;;;;15.07;8.02;;;;;;;;;;5100392;28;20200;-84
2022/04/21 04:04:31;;;;;;;12.10;7.78;;;;;;;;;;5101475;28;20024;-84
2022/04/21 04:12:29;;;;;;;12.98;6.40;;;;;;;;;;5099292;28;20039;-81
2022/04/21 04:14:54;;;;;;;9.52;6.03;;;;;;;;;;5098676;28;20465;-85
2022/04/21 04:17:19;;;;;;;10.30;6.20;;;;;;;;;;5098744;28;20019;-80
2022/04/21 04:19:45;;;;;;;15.40;6.72;;;;;;;;;;5097359;28;20027;-85
2022/04/21 04:22:14;;;;;;;14.27;6.68;;;;;;;;;;5096913;28;20477;-82
2022/04/21 04:24:40;;;;;;;12.25;7.05;;;;;;;;;;5095608;28;20131;-83
2022/04/21 04:27:05;;;;;;;12.57;6.07;;;;;;;;;;5108453;28;20035;-89
2022/04/21 04:29:30;;;;;;;11.75;5.82;;;;;;;;;;5114618;28;20028;-85
2022/04/21 04:31:57;;;;;;;15.30;6.75;;;;;;;;;;5100195;28;20024;-81
2022/04/21 04:34:22;;;;;;;12.70;5.93;;;;;;;;;;5098003;28;20027;-77
2022/04/21 04:36:47;;;;;;;11.65;6.28;;;;;;;;;;5094788;28;20027;-77
2022/04/21 04:39:13;;;;;;;13.50;5.80;;;;;;;;;;5094576;28;20023;-83
2022/04/21 04:44:22;;;;;;;12.85;7.25;;;;;;;;;;5106141;28;20030;-85
2022/04/21 04:46:47;;;;;;;9.35;6.32;;;;;;;;;;5110038;28;20035;-86
2022/04/21 04:49:12;;;;;;;12.18;7.28;;;;;;;;;;5112370;28;20008;-79
2022/04/21 04:51:41;;;;;;;10.25;6.80;;;;;;;;;;5095561;28;20042;-83
2022/04/21 04:54:06;;;;;;;10.45;6.53;;;;;;;;;;5098697;28;20032;-83
2022/04/21 04:56:32;;;;;;;13.60;6.72;;;;;;;;;;5103815;28;20016;-81
2022/04/21 04:58:57;;;;;;;13.25;7.57;;;;;;;;;;5099964;28;20464;-80
2022/04/21 05:01:42;;;;;;;13.00;6.95;;;;;;;;;;5097068;28;20032;-81
2022/04/21 05:04:07;;;;;;;12.32;7.03;;;;;;;;;;5118230;28;20019;-84
2022/04/21 05:06:36;;;;;;;13.02;7.32;;;;;;;;;;5119683;28;20468;-82
2022/04/21 05:09:01;;;;;;;9.48;7.03;;;;;;;;;;5116830;27;20380;-83
2022/04/21 05:11:26;;;;;;;10.23;6.72;;;;;;;;;;5115725;28;20020;-79
2022/04/21 05:13:52;;;;;;;9.68;7.43;;;;;;;;;;5116904;28;20480;-77
2022/04/21 05:16:17;;;;;;;11.38;7.18;;;;;;;;;;5118305;28;20011;-83
2022/04/21 05:18:42;;;;;;;10.25;6.75;;;;;;;;;;5122996;28;20023;-85
2022/04/21 05:21:08;;;;;;;10.82;6.60;;;;;;;;;;5123296;28;20022;-85
2022/04/21 05:23:36;;;;;;;10.85;7.05;;;;;;;;;;5122544;28;20525;-82
2022/04/21 05:26:02;;;;;;;10.43;6.22;;;;;;;;;;5122308;28;20020;-77
2022/04/21 05:28:27;;;;;;;12.35;6.82;;;;;;;;;;5120127;28;20092;-80
2022/04/21 05:31:01;;;;;;;11.05;6.53;;;;;;;;;;5098780;28;20524;-78
2022/04/21 05:33:27;;;;;;;10.07;6.63;;;;;;;;;;5100148;28;20032;-83
2022/04/21 05:35:53;;;;;;;9.10;6.30;;;;;;;;;;5095530;28;20012;-82
2022/04/21 05:38:20;;;;;;;9.68;6.07;;;;;;;;;;5096037;28;20080;-81
2022/04/21 05:40:45;;;;;;;11.43;7.00;;;;;;;;;;5102811;28;20008;-83
2022/04/21 05:43:14;;;;;;;14.15;7.05;;;;;;;;;;5112909;28;20038;-84
2022/04/21 05:45:39;;;;;;;11.35;6.70;;;;;;;;;;5106808;28;20044;-86
2022/04/21 05:48:05;;;;;;;12.07;7.07;;;;;;;;;;5113223;28;20030;-80
2022/04/21 05:50:31;;;;;;;18.33;7.10;;;;;;;;;;5118825;28;20011;-87
2022/04/21 05:52:58;;;;;;;11.20;7.28;;;;;;;;;;5113724;28;20204;-86
2022/04/21 05:55:26;;;;;;;14.93;7.53;;;;;;;;;;5114433;28;20150;-84
2022/04/21 05:57:51;;;;;;;15.73;7.53;;;;;;;;;;5116341;28;20015;-85
2022/04/21 06:00:20;;;;;;;12.63;7.10;;;;;;;;;;5107518;28;20110;-82
2022/04/21 06:02:45;;;;;;;10.80;7.05;;;;;;;;;;5105719;28;20024;-83
2022/04/21 06:05:10;;;;;;;10.63;6.70;;;;;;;;;;5106793;28;20007;-85
2022/04/21 06:07:35;;;;;;;10.43;6.25;;;;;;;;;;5102094;28;20107;-79
2022/04/21 06:10:01;;;;;;;11.85;7.60;;;;;;;;;;5100575;28;20491;-80
2022/04/21 06:12:26;;;;;;;10.85;6.72;;;;;;;;;;5101965;28;20032;-82
2022/04/21 06:14:52;;;;;;;11.52;7.15;;;;;;;;;;5104897;28;20020;-81
2022/04/21 06:17:17;;;;;;;10.70;6.43;;;;;;;;;;5100818;28;20016;-81
2022/04/21 06:19:42;;;;;;;10.48;6.38;;;;;;;;;;5097820;28;20032;-79
2022/04/21 06:22:08;;;;;;;14.00;8.35;;;;;;;;;;5111571;28;20012;-85
2022/04/21 06:24:33;;;;;;;12.73;7.65;;;;;;;;;;5116763;28;20020;-83
2022/04/21 06:26:58;;;;;;;13.20;6.95;;;;;;;;;;5110661;28;20023;-87
2022/04/21 06:29:24;;;;;;;14.75;7.93;;;;;;;;;;5106423;28;20029;-86
2022/04/21 06:31:49;;;;;;;15.77;7.20;;;;;;;;;;5109807;28;20036;-86
2022/04/21 06:34:14;;;;;;;11.20;6.95;;;;;;;;;;5110797;28;20020;-82
2022/04/21 06:36:39;;;;;;;14.05;7.45;;;;;;;;;;5117337;28;20016;-85
2022/04/21 06:39:07;;;;;;;11.43;6.50;;;;;;;;;;5118626;28;20020;-78
2022/04/21 06:41:33;;;;;;;12.70;6.78;;;;;;;;;;5099825;28;20438;-84
2022/04/21 06:49:25;;;;;;;16.50;7.93;;;;;;;;;;5103301;28;20073;-83
2022/04/21 06:51:51;;;;;;;13.57;7.32;;;;;;;;;;5102461;28;20024;-84
2022/04/21 06:54:16;;;;;;;14.43;7.80;;;;;;;;;;5105235;28;20016;-82
2022/04/21 06:56:43;;;;;;;10.18;7.18;;;;;;;;;;5100215;28;20042;-86
2022/04/21 06:59:09;;;;;;;12.45;7.22;;;;;;;;;;5109824;28;20376;-80
2022/04/21 07:01:35;;;;;;;14.38;8.68;;;;;;;;;;5106917;28;20015;-83
2022/04/21 07:04:00;;;;;;;11.52;7.65;;;;;;;;;;5102023;28;20000;-81
2022/04/21 07:06:25;;;;;;;11.68;7.60;;;;;;;;;;5095492;28;20016;-79
2022/04/21 07:08:51;;;;;;;11.57;6.53;;;;;;;;;;5095727;28;20137;-85
2022/04/21 07:11:20;;;;;;;11.23;6.85;;;;;;;;;;5095566;28;20139;-82
2022/04/21 07:13:45;;;;;;;11.48;7.22;;;;;;;;;;5112460;28;20055;-79
2022/04/21 07:16:10;;;;;;;12.07;7.10;;;;;;;;;;5095631;28;20047;-81
2022/04/21 07:18:36;;;;;;;10.43;6.70;;;;;;;;;;5093977;28;20473;-82
2022/04/21 07:21:03;;;;;;;9.60;6.32;;;;;;;;;;5090904;28;20685;-78
2022/04/21 07:23:28;;;;;;;10.23;6.43;;;;;;;;;;5099622;28;20073;-78
2022/04/21 07:25:54;;;;;;;11.00;6.25;;;;;;;;;;5114449;28;20011;-79
2022/04/21 07:28:19;;;;;;;13.55;5.85;;;;;;;;;;5109032;28;20054;-80
2022/04/21 07:30:46;;;;;;;10.45;5.60;;;;;;;;;;5104378;28;20152;-77
2022/04/21 07:33:11;;;;;;;7.65;5.70;;;;;;;;;;5103592;28;20552;-75
2022/04/21 07:35:37;;;;;;;7.67;5.50;;;;;;;;;;5106785;28;20024;-77
2022/04/21 07:38:02;;;;;;;9.50;6.32;;;;;;;;;;5114318;28;20280;-78
2022/04/21 07:40:28;;;;;;;8.45;5.75;;;;;;;;;;5116152;28;20077;-75
2022/04/21 07:42:53;;;;;;;6.75;5.10;;;;;;;;;;5113982;28;20376;-77
2022/04/21 07:45:18;;;;;;;9.82;5.47;;;;;;;;;;5113137;28;20051;-77
2022/04/21 07:47:43;;;;;;;9.00;6.53;;;;;;;;;;5114135;28;20019;-76
2022/04/21 07:50:09;;;;;;;8.97;6.30;;;;;;;;;;5113665;28;20317;-76
2022/04/21 07:55:25;;;;;;;8.18;6.10;;;;;;;;;;5114316;28;20026;-76
2022/04/21 07:57:55;;;;;;;7.88;5.50;;;;;;;;;;5100473;28;20039;-79
2022/04/21 08:00:20;;;;;;;9.98;6.05;;;;;;;;;;5101383;28;20011;-77
2022/04/21 08:02:46;;;;;;;11.30;6.97;;;;;;;;;;5096556;28;20031;-77
2022/04/21 08:05:12;;;;;;;13.23;7.70;;;;;;;;;;5094206;28;20024;-82
2022/04/21 08:07:38;;;;;;;14.02;7.38;;;;;;;;;;5100433;28;20134;-87
2022/04/21 08:10:04;;;;;;;9.68;7.38;;;;;;;;;;5114163;28;20047;-76
2022/04/21 08:12:35;;;;;;;15.40;7.30;;;;;;;;;;5103569;28;20051;-77
2022/04/21 08:15:01;;;;;;;14.38;7.70;;;;;;;;;;5103407;28;20011;-81
2022/04/21 08:17:26;;;;;;;15.10;7.95;;;;;;;;;;5105358;28;20468;-78
2022/04/21 08:19:52;;;;;;;9.67;6.87;;;;;;;;;;5094463;28;20035;-82
2022/04/21 08:22:17;;;;;;;11.00;6.70;;;;;;;;;;5095359;28;20252;-80
2022/04/21 08:32:54;;;;;;;10.52;6.50;;;;;;;;;;5093426;28;20567;-77
2022/04/21 08:35:20;;;;;;;11.17;7.07;;;;;;;;;;5091983;28;20052;-80
2022/04/21 08:37:46;;;;;;;10.90;6.90;;;;;;;;;;5094677;28;20301;-77
2022/04/21 08:40:11;;;;;;;10.63;6.73;;;;;;;;;;5094829;28;20035;-81
2022/04/21 08:42:40;;;;;;;10.30;6.90;;;;;;;;;;5097912;28;20282;-80
2022/04/21 08:45:06;;;;;;;13.07;6.70;;;;;;;;;;5104882;28;20386;-78
2022/04/21 08:47:32;;;;;;;9.15;6.60;;;;;;;;;;5098209;28;20016;-85
2022/04/21 08:50:09;;;;;;;8.73;6.35;;;;;;;;;;5115510;28;20050;-82
2022/04/21 08:52:34;;;;;;;11.27;6.53;;;;;;;;;;5123064;28;20038;-84
2022/04/21 08:55:01;;;;;;;9.88;6.40;;;;;;;;;;5127387;28;20016;-88
2022/04/21 08:57:28;;;;;;;8.50;5.43;;;;;;;;;;5120275;27;20031;-85
2022/04/21 08:59:54;;;;;;;8.23;6.10;;;;;;;;;;5127960;28;20012;-83
2022/04/21 09:02:20;;;;;;;8.88;5.65;;;;;;;;;;5108871;28;20394;-84
2022/04/21 09:04:45;;;;;;;8.27;6.00;;;;;;;;;;5119276;28;20016;-80
2022/04/21 09:07:13;;;;;;;9.27;5.70;;;;;;;;;;5123511;28;20282;-83
2022/04/21 09:09:38;;;;;;;7.10;5.55;;;;;;;;;;5126332;28;20256;-84
2022/04/21 09:12:03;;;;;;;9.57;6.20;;;;;;;;;;5128838;28;20023;-84
2022/04/21 09:14:29;;;;;;;8.00;5.45;;;;;;;;;;5128683;28;20755;-80
2022/04/21 09:16:54;;;;;;;8.15;5.35;;;;;;;;;;5124333;28;20377;-83
2022/04/21 09:19:20;;;;;;;6.88;5.50;;;;;;;;;;5126075;28;20011;-86
2022/04/21 09:21:45;;;;;;;8.50;5.20;;;;;;;;;;5124241;28;20041;-82
2022/04/21 09:24:23;;;;;;;7.22;5.05;;;;;;;;;;5124078;28;20023;-78
2022/04/21 09:26:49;;;;;;;6.35;4.93;;;;;;;;;;5114804;28;20557;-81
2022/04/21 09:29:24;;;;;;;9.43;4.55;;;;;;;;;;5109394;28;20024;-82
2022/04/21 09:31:57;;;;;;;7.45;5.25;;;;;;;;;;5111087;28;20030;-79
2022/04/21 09:34:24;;;;;;;7.38;5.28;;;;;;;;;;5110767;28;20028;-81
2022/04/21 09:36:49;;;;;;;7.05;4.85;;;;;;;;;;5114506;28;20489;-83
2022/04/21 09:39:14;;;;;;;6.57;5.30;;;;;;;;;;5114766;28;20012;-80
2022/04/21 09:41:42;;;;;;;7.28;5.45;;;;;;;;;;5111999;28;20476;-76
2022/04/21 09:46:07;;;;;;;7.68;4.68;;;;;;;;;;5112654;28;20024;-82
2022/04/21 09:46:56;;;;;;;6.85;5.13;;;;;;;;;;5102673;28;20672;-84
2022/04/21 09:49:35;;;;;;;8.00;4.65;;;;;;;;;;5108556;28;20046;-84
2022/04/21 09:52:00;;;;;;;6.22;4.75;;;;;;;;;;5110975;28;20055;-86
2022/04/21 09:54:29;;;;;;;6.18;5.03;;;;;;;;;;5113283;28;20028;-84
2022/04/21 09:56:55;;;;;;;6.90;5.20;;;;;;;;;;5115336;28;20075;-81
2022/04/21 09:59:21;;;;;;;9.13;5.63;;;;;;;;;;5106336;28;20051;-81
2022/04/21 10:01:46;;;;;;;11.63;5.72;;;;;;;;;;5105691;28;20055;-83
2022/04/21 10:04:13;;;;;;;8.10;5.22;;;;;;;;;;5103191;28;20040;-80
2022/04/21 10:06:38;;;;;;;7.57;5.20;;;;;;;;;;5093961;28;20058;-82
2022/04/21 10:09:05;;;;;;;7.05;5.13;;;;;;;;;;5109516;28;20430;-82
2022/04/21 10:11:31;;;;;;;7.60;5.07;;;;;;;;;;5097433;28;20046;-83
2022/04/21 10:13:56;;;;;;;7.25;4.85;;;;;;;;;;5105840;28;20332;-79
2022/04/21 10:16:26;;;;;;;8.32;5.38;;;;;;;;;;5093937;28;20028;-85
2022/04/21 10:18:52;;;;;;;7.63;4.80;;;;;;;;;;5114937;28;20012;-82
2022/04/21 10:21:19;;;;;;;10.77;5.10;;;;;;;;;;5115033;28;20046;-86
2022/04/21 10:23:44;;;;;;;10.02;4.88;;;;;;;;;;5101717;28;20472;-90
2022/04/21 10:26:10;;;;;;;6.78;4.82;;;;;;;;;;5101239;28;20032;-79
2022/04/21 10:28:36;;;;;;;7.18;5.05;;;;;;;;;;5105375;28;20040;-82
2022/04/21 10:31:20;;;;;;;8.63;5.40;;;;;;;;;;5096811;28;20072;-78
2022/04/21 10:33:52;;;;;;;9.00;5.00;;;;;;;;;;5096909;28;20054;-86
2022/04/21 10:36:31;;;;;;;6.40;4.22;;;;;;;;;;5103748;28;20016;-80
2022/04/21 10:39:15;;;;;;;7.03;4.25;;;;;;;;;;5104523;28;20048;-85
2022/04/21 10:41:40;;;;;;;8.45;4.72;;;;;;;;;;5100293;28;20036;-83
2022/04/21 10:44:13;;;;;;;7.43;4.05;;;;;;;;;;5099273;28;20023;-81
2022/04/21 10:46:38;;;;;;;8.68;3.80;;;;;;;;;;5101540;28;20098;-90
2022/04/21 10:49:03;;;;;;;6.73;4.17;;;;;;;;;;5116593;28;20518;-90
2022/04/21 10:57:16;;;;;;;7.47;4.20;;;;;;;;;;5103560;28;20115;-84
2022/04/21 11:00:09;;;;;;;6.47;3.78;;;;;;;;;;5110912;28;20016;-85
2022/04/21 11:02:38;;;;;;;6.00;3.78;;;;;;;;;;5108238;28;20536;-81
2022/04/21 11:05:23;;;;;;;7.50;3.58;;;;;;;;;;5106696;28;20009;-88
2022/04/21 11:07:52;;;;;;;6.75;4.03;;;;;;;;;;5113857;28;20068;-80
2022/04/21 11:10:42;;;;;;;4.97;3.50;;;;;;;;;;5106801;28;20028;-86
2022/04/21 11:13:12;;;;;;;7.13;3.25;;;;;;;;;;5088665;28;20043;-85
2022/04/21 11:15:39;;;;;;;5.45;3.40;;;;;;;;;;5101147;28;20027;-86
2022/04/21 11:18:15;;;;;;;4.75;3.45;;;;;;;;;;5103698;28;20012;-86
2022/04/21 11:20:44;;;;;;;4.68;3.20;;;;;;;;;;5108264;28;20042;-84
2022/04/21 11:23:30;;;;;;;5.00;3.40;;;;;;;;;;5110096;28;20012;-82
2022/04/21 11:26:03;;;;;;;5.35;3.08;;;;;;;;;;5068495;28;20031;-88
2022/04/21 11:28:30;;;;;;;7.28;3.63;;;;;;;;;;5098122;28;20046;-88
2022/04/21 11:30:56;;;;;;;5.82;3.60;;;;;;;;;;5110348;28;20081;-85
2022/04/21 11:33:22;;;;;;;4.75;3.30;;;;;;;;;;5099904;28;20700;-84
2022/04/21 11:35:48;;;;;;;5.70;3.50;;;;;;;;;;5097623;28;20012;-85
2022/04/21 11:38:13;;;;;;;4.43;2.92;;;;;;;;;;5103270;28;20264;-84
2022/04/21 11:40:40;;;;;;;7.13;3.10;;;;;;;;;;5103860;28;20095;-88
2022/04/21 11:43:11;;;;;;;5.45;3.15;;;;;;;;;;5099183;28;20019;-90
2022/04/21 11:45:40;;;;;;;4.63;3.03;;;;;;;;;;5105892;28;20031;-84
2022/04/21 11:48:13;;;;;;;12.00;3.80;;;;;;;;;;5107487;28;20107;-82
2022/04/21 11:50:42;;;;;;;8.02;3.13;;;;;;;;;;5109998;27;20400;-79
2022/04/21 11:53:12;;;;;;;5.88;3.20;;;;;;;;;;5114260;28;20127;-82
2022/04/21 11:55:37;;;;;;;5.75;3.28;;;;;;;;;;5102431;28;20122;-82
2022/04/21 11:58:03;;;;;;;5.37;3.10;;;;;;;;;;5114114;28;20036;-82
2022/04/21 12:08:48;;;;;;;5.38;2.95;;;;;;;;;;5100667;28;20017;-85
2022/04/21 12:11:18;;;;;;;4.60;2.78;;;;;;;;;;5114819;28;20012;-84
2022/04/21 12:13:44;;;;;;;3.72;2.42;;;;;;;;;;5108840;28;20053;-82
2022/04/21 12:16:29;;;;;;;5.72;2.55;;;;;;;;;;5113571;28;20016;-83
2022/04/21 12:18:55;;;;;;;6.38;2.72;;;;;;;;;;5099461;28;20020;-79
2022/04/21 12:21:33;;;;;;;4.53;2.58;;;;;;;;;;5100406;28;20039;-80
2022/04/21 12:24:08;;;;;;;4.28;2.88;;;;;;;;;;5103422;28;20030;-89
2022/04/21 12:26:35;;;;;;;5.93;3.05;;;;;;;;;;5099883;28;20499;-84
2022/04/21 12:29:00;;;;;;;5.43;3.00;;;;;;;;;;5109831;28;20069;-81
2022/04/21 12:31:26;;;;;;;4.93;2.77;;;;;;;;;;5114175;28;20123;-86
2022/04/21 12:33:51;;;;;;;4.43;2.55;;;;;;;;;;5110933;28;20311;-87
2022/04/21 12:36:24;;;;;;;4.63;2.60;;;;;;;;;;5109489;28;20044;-85
2022/04/21 12:38:56;;;;;;;8.88;3.38;;;;;;;;;;5114569;28;20264;-89
2022/04/21 12:41:22;;;;;;;5.55;3.85;;;;;;;;;;5107287;28;20022;-87
2022/04/21 12:43:48;;;;;;;4.78;3.05;;;;;;;;;;5109971;28;20103;-82
2022/04/21 12:46:14;;;;;;;4.72;2.75;;;;;;;;;;5107295;28;20024;-79
2022/04/21 12:48:46;;;;;;;4.30;2.65;;;;;;;;;;5112277;28;20023;-86
2022/04/21 12:51:17;;;;;;;6.18;2.80;;;;;;;;;;5110489;28;20471;-86
2022/04/21 12:53:42;;;;;;;4.10;2.35;;;;;;;;;;5104115;28;20141;-77
2022/04/21 12:56:15;;;;;;;5.00;2.75;;;;;;;;;;5101886;28;20204;-78
2022/04/21 12:58:40;;;;;;;5.90;2.22;;;;;;;;;;5102060;28;20048;-83
2022/04/21 13:01:05;;;;;;;10.52;3.30;;;;;;;;;;5099344;28;20103;-80
2022/04/21 13:03:31;;;;;;;5.30;2.40;;;;;;;;;;5095806;28;20135;-79
2022/04/21 13:05:58;;;;;;;5.22;2.60;;;;;;;;;;5104748;28;20016;-80
2022/04/21 13:08:25;;;;;;;4.70;2.28;;;;;;;;;;5108111;27;20518;-83
2022/04/21 13:10:51;;;;;;;3.33;2.20;;;;;;;;;;5099850;28;20106;-81
2022/04/21 13:13:16;;;;;;;5.47;2.95;;;;;;;;;;5106023;28;20443;-82
2022/04/21 13:15:42;;;;;;;5.22;2.60;;;;;;;;;;5098108;28;20029;-81
2022/04/21 13:18:07;;;;;;;4.20;2.63;;;;;;;;;;5103371;28;20020;-82
2022/04/21 13:23:17;;;;;;;4.82;2.40;;;;;;;;;;5104021;28;20267;-80
2022/04/21 13:25:42;;;;;;;3.15;2.20;;;;;;;;;;5103048;28;20015;-82
2022/04/21 13:28:09;;;;;;;3.85;2.20;;;;;;;;;;5102886;28;21306;-86
2022/04/21 13:30:34;;;;;;;5.45;2.38;;;;;;;;;;5099259;28;20020;-84
2022/04/21 13:35:44;;;;;;;3.15;2.30;;;;;;;;;;5106687;28;20648;-78
2022/04/21 13:38:09;;;;;;;4.17;2.30;;;;;;;;;;5095517;28;20027;-79
2022/04/21 13:40:34;;;;;;;4.65;2.42;;;;;;;;;;5108278;28;20595;-79
2022/04/21 13:43:00;;;;;;;3.75;2.03;;;;;;;;;;5107038;28;20503;-82
2022/04/21 13:45:25;;;;;;;3.42;2.35;;;;;;;;;;5109127;28;20039;-81
2022/04/21 13:47:50;;;;;;;5.22;2.78;;;;;;;;;;5102919;28;20024;-83
2022/04/21 13:50:16;;;;;;;6.25;3.00;;;;;;;;;;5099505;28;20018;-86
2022/04/21 13:52:42;;;;;;;3.83;2.35;;;;;;;;;;5102206;28;20023;-79
2022/04/21 13:55:08;;;;;;;5.05;2.38;;;;;;;;;;5100621;28;20450;-84
2022/04/21 13:57:33;;;;;;;4.75;2.30;;;;;;;;;;5101376;28;20023;-77
2022/04/21 13:59:58;;;;;;;5.23;2.30;;;;;;;;;;5100334;28;20016;-81
2022/04/21 14:02:24;;;;;;;6.17;2.70;;;;;;;;;;5106223;28;20272;-83
2022/04/21 14:04:49;;;;;;;4.27;2.27;;;;;;;;;;5104583;28;20280;-87
2022/04/21 14:07:14;;;;;;;5.70;2.25;;;;;;;;;;5105623;28;20359;-86
2022/04/21 14:09:39;;;;;;;5.03;2.00;;;;;;;;;;5109512;28;20024;-85
2022/04/21 14:12:05;;;;;;;5.32;2.33;;;;;;;;;;5115362;28;20282;-82
2022/04/21 14:14:31;;;;;;;3.22;2.05;;;;;;;;;;5101258;28;20020;-84
2022/04/21 14:16:57;;;;;;;2.85;1.90;;;;;;;;;;5102963;28;20442;-80
2022/04/21 14:19:22;;;;;;;4.45;2.25;;;;;;;;;;5107107;28;20020;-83
2022/04/21 14:21:48;;;;;;;4.03;2.33;;;;;;;;;;5106544;28;20019;-76
2022/04/21 14:24:13;;;;;;;4.07;2.45;;;;;;;;;;5096638;28;20365;-76
2022/04/21 14:26:38;;;;;;;3.60;2.15;;;;;;;;;;5094238;28;20024;-75
2022/04/21 14:29:06;;;;;;;7.47;2.63;;;;;;;;;;5093165;28;20043;-76
2022/04/21 14:31:32;;;;;;;3.40;2.38;;;;;;;;;;5104632;28;20019;-80
2022/04/21 14:33:57;;;;;;;5.85;2.65;;;;;;;;;;5103925;28;20036;-82
2022/04/21 14:36:24;;;;;;;5.00;2.50;;;;;;;;;;5112287;28;20118;-85
2022/04/21 14:44:17;;;;;;;4.82;2.78;;;;;;;;;;5092085;28;20138;-79
2022/04/21 14:46:44;;;;;;;3.88;2.20;;;;;;;;;;5102045;28;20020;-80
2022/04/21 14:49:09;;;;;;;4.30;2.25;;;;;;;;;;5097347;28;20540;-87
2022/04/21 14:51:36;;;;;;;3.90;2.40;;;;;;;;;;5098167;28;20028;-83
2022/04/21 14:54:01;;;;;;;4.53;2.55;;;;;;;;;;5099895;28;20402;-81
2022/04/21 14:56:27;;;;;;;3.78;2.33;;;;;;;;;;5090100;28;20040;-81
2022/04/21 14:58:53;;;;;;;4.07;2.42;;;;;;;;;;5105999;28;20504;-78
2022/04/21 15:01:18;;;;;;;5.78;2.60;;;;;;;;;;5096380;28;20075;-79
2022/04/21 15:03:44;;;;;;;5.07;2.40;;;;;;;;;;5091201;28;20023;-79
2022/04/21 15:06:11;;;;;;;3.72;2.25;;;;;;;;;;5091238;28;20460;-82
2022/04/21 15:08:37;;;;;;;5.60;2.97;;;;;;;;;;5097912;28;20024;-78
2022/04/21 15:11:03;;;;;;;5.65;3.55;;;;;;;;;;5095090;28;20018;-78
2022/04/21 15:13:29;;;;;;;4.65;3.20;;;;;;;;;;5096401;28;20558;-81
2022/04/21 15:15:54;;;;;;;6.95;3.67;;;;;;;;;;5098243;28;20061;-80
2022/04/21 15:18:19;;;;;;;10.00;4.03;;;;;;;;;;5097554;28;20035;-81
2022/04/21 15:20:45;;;;;;;6.60;3.30;;;;;;;;;;5104452;28;20464;-85
2022/04/21 15:23:13;;;;;;;5.43;3.00;;;;;;;;;;5099602;28;20039;-88
2022/04/21 15:25:39;;;;;;;6.00;3.13;;;;;;;;;;5092762;28;20020;-80
2022/04/21 15:28:08;;;;;;;5.40;3.00;;;;;;;;;;5096750;28;20419;-80
2022/04/21 15:30:37;;;;;;;4.43;2.47;;;;;;;;;;5097173;28;20043;-81
2022/04/21 15:33:07;;;;;;;4.82;2.70;;;;;;;;;;5100939;28;20036;-80
2022/04/21 15:35:32;;;;;;;6.20;2.90;;;;;;;;;;5099659;28;20109;-80
2022/04/21 15:37:58;;;;;;;5.70;2.70;;;;;;;;;;5098280;28;20052;-78
2022/04/21 15:40:23;;;;;;;4.50;2.72;;;;;;;;;;5088288;28;20388;-79